Terminal Aerodrome Forecast
Issued by NWS Grand Junction, CO

Home | Current Version | Previous Version | Text Only | Print | Product List | Glossary On
Versions: 1 2 3 4 5 6 7 8 9 10 11 12 13 14 15
000
FTUS45 KGJT 191129
TAFGJT
TAF
KGJT 191129Z 1912/2012 11009KT P6SM VCSH BKN090
     FM191900 16005KT P6SM -SHRA BKN045
     FM192100 20009KT P6SM -SHRA BKN030
     FM200200 02006KT 6SM BR VCSH OVC035
     FM200400 01005KT P6SM VCSH OVC045
     FM200600 03005KT P6SM BKN060=

USA.gov is the U.S. government's official web portal to all federal, state and local government web resources and services.